WSSL METAR and TAF | Updated Today

WSSL METAR

Seletar Airport

Observation time: 60 min. ago

WSSL 251800Z VRB01KT CAVOK 25/23 Q1010

Need help? Read our tutorial on how to read METARs or read the parsed version below.

Seletar Airport (WSSL) METAR

  • Weather conditions on Wed, 25 May 2022 18:00:00 +0000 (60 min. ago):
  • Present conditions: Dry
  • Clouds: Clear skies
  • Visibility: Greater than 10 km
  • Wind: Variable at 1 knots
  • Temperature: 25 celsius
  • Dew point: 23 celsius
  • Pressure: 1010 millibars
  • Remarks: None


Useful to know...

WSSL TAF

Seletar Airport

TAF WSSL 251700Z 2518/2700 25007KT 9999 FEW015 SCT020
Observation time: 2:00 hr. ago
Need help? Read our tutorial on how to read TAFs or read the parsed version below.

Parsed version of TAF for Seletar Airport (WSSL)

  • From 25 May at 18:00 UTC, to day 27 of the month at 00:00 UTC
  • Clouds: A few at 457 meters; scattered at 610 meters
  • Visibility: Greater than 10 km
  • Wind: 250 degrees at 7